createdAt,value
2022-11-04T00:02:05.229Z,99841.91
2022-11-04T00:04:31.741Z,99835.63
2022-11-04T00:06:58.439Z,99841.28
2022-11-04T00:09:27.439Z,99836.97
2022-11-04T00:12:13.037Z,99828.78
2022-11-04T00:14:39.473Z,99824.31
2022-11-04T00:17:24.272Z,99834.28
2022-11-04T00:20:13.300Z,99825.91
2022-11-04T00:23:00.347Z,99828.94
2022-11-04T00:25:46.551Z,99834.97
2022-11-04T00:28:34.392Z,99826.97
2022-11-04T00:31:22.290Z,99826.09
2022-11-04T00:33:49.722Z,99824.19
2022-11-04T00:36:16.566Z,99821.06
2022-11-04T00:38:43.043Z,99816.56
2022-11-04T00:41:28.755Z,99817.03
2022-11-04T00:43:57.793Z,99828.88
2022-11-04T00:46:24.468Z,99821.19
2022-11-04T00:48:50.974Z,99826.84
2022-11-04T00:51:18.101Z,99819.56
2022-11-04T00:53:44.486Z,99819.53
2022-11-04T00:56:10.972Z,99815.03
2022-11-04T00:58:37.439Z,99817.78
2022-11-04T01:01:11.438Z,99808.44
2022-11-04T01:03:38.188Z,99796.22
2022-11-04T01:06:05.733Z,99800.78
2022-11-04T01:08:32.190Z,99794.94
2022-11-04T01:11:02.477Z,99798.09
2022-11-04T01:13:29.110Z,99789.47
2022-11-04T01:16:01.926Z,99794.59
2022-11-04T01:18:28.746Z,99785.78
2022-11-04T01:20:55.167Z,99789.03
2022-11-04T01:23:21.559Z,99777.88
2022-11-04T01:25:47.976Z,99773.19
2022-11-04T01:28:14.455Z,99784.88
2022-11-04T01:30:40.916Z,99784.66
2022-11-04T01:33:07.492Z,99786.59
2022-11-04T01:35:33.900Z,99777.59
2022-11-04T01:38:00.356Z,99774.63
2022-11-04T01:40:27.121Z,99777.28
2022-11-04T01:42:53.586Z,99776.75
2022-11-04T01:45:21.804Z,99789.66
2022-11-04T01:48:05.208Z,99786.78
2022-11-04T01:50:34.761Z,99797.59
2022-11-04T01:53:07.229Z,99792.13
2022-11-04T01:55:36.292Z,99785.06
2022-11-04T01:58:10.673Z,99777.25
2022-11-04T02:00:41.842Z,99776.66
2022-11-04T02:03:17.172Z,99775.66
2022-11-04T02:09:32.391Z,99760.03
2022-11-04T02:12:17.608Z,99760.38
2022-11-04T02:14:46.392Z,99752.25
2022-11-04T02:17:52.132Z,99750.63
2022-11-04T02:20:56.796Z,99750.28
2022-11-04T02:23:43.409Z,99749.94
2022-11-04T02:26:18.780Z,99751.31
2022-11-04T02:29:03.608Z,99749.94
2022-11-04T02:31:49.782Z,99740.63
2022-11-04T02:34:34.510Z,99739.75
2022-11-04T02:37:19.102Z,99737.44
2022-11-04T02:39:47.182Z,99738.50
2022-11-04T02:42:31.245Z,99740.88
2022-11-04T02:45:26.742Z,99732.00
2022-11-04T02:48:16.562Z,99723.63
2022-11-04T02:51:22.514Z,99731.94
2022-11-04T02:54:04.547Z,99725.47
2022-11-04T02:56:35.800Z,99719.75
2022-11-04T02:59:14.314Z,99718.22
2022-11-04T03:01:44.959Z,99716.25
2022-11-04T03:04:15.523Z,99714.78
2022-11-04T03:06:47.695Z,99721.47
2022-11-04T03:09:15.460Z,99731.75
2022-11-04T03:11:45.653Z,99738.94
2022-11-04T03:14:22.834Z,99730.41
2022-11-04T03:16:52.853Z,99722.72
2022-11-04T03:19:40.080Z,99718.53
2022-11-04T03:22:12.349Z,99714.41
2022-11-04T03:24:39.901Z,99705.28
2022-11-04T03:28:01.805Z,99712.66
2022-11-04T03:30:36.266Z,99706.28
2022-11-04T03:33:28.658Z,99727.44
2022-11-04T03:35:55.152Z,99747.09
2022-11-04T03:38:22.666Z,99759.91
2022-11-04T03:40:49.937Z,99762.75
2022-11-04T03:43:25.735Z,99769.19
2022-11-04T03:45:52.532Z,99765.38
2022-11-04T03:48:20.777Z,99763.31
2022-11-04T03:50:48.790Z,99761.03
2022-11-04T03:53:23.819Z,99760.47
2022-11-04T03:56:11.845Z,99756.84
2022-11-04T03:59:07.850Z,99750.00
2022-11-04T04:01:52.856Z,99745.38
2022-11-04T04:04:25.236Z,99760.22
2022-11-04T04:06:56.253Z,99751.34
2022-11-04T04:09:35.512Z,99743.03
2022-11-04T04:12:11.337Z,99751.25
2022-11-04T04:14:49.348Z,99744.06
2022-11-04T04:17:19.327Z,99754.31
2022-11-04T04:19:56.155Z,99761.44
2022-11-04T04:22:28.277Z,99760.56
2022-11-04T04:25:17.048Z,99756.34
2022-11-04T04:27:44.952Z,99747.47
2022-11-04T04:30:16.821Z,99751.34
2022-11-04T04:32:55.840Z,99745.91
2022-11-04T04:35:42.829Z,99746.69
2022-11-04T04:38:38.272Z,99744.25
2022-11-04T04:41:39.904Z,99729.97
2022-11-04T04:44:34.275Z,99725.22
2022-11-04T04:47:02.843Z,99731.22
2022-11-04T04:49:35.025Z,99732.38
2022-11-04T04:52:04.162Z,99736.75
2022-11-04T04:54:30.588Z,99746.41
2022-11-04T04:56:57.020Z,99749.38
2022-11-04T04:59:23.454Z,99753.38
2022-11-04T05:01:50.158Z,99755.09
2022-11-04T05:04:16.801Z,99751.84
2022-11-04T05:06:43.195Z,99746.13
2022-11-04T05:09:09.654Z,99750.47
2022-11-04T05:11:36.245Z,99760.25
2022-11-04T05:14:02.665Z,99748.06
2022-11-04T05:16:29.523Z,99755.44
2022-11-04T05:18:55.935Z,99757.19
2022-11-04T05:21:22.328Z,99755.56
2022-11-04T05:23:48.767Z,99756.44
2022-11-04T05:26:15.403Z,99755.75
2022-11-04T05:28:41.847Z,99754.59
2022-11-04T05:31:08.264Z,99769.56
2022-11-04T05:33:34.717Z,99764.13
2022-11-04T05:36:13.122Z,99771.31
2022-11-04T05:38:40.363Z,99787.78
2022-11-04T05:41:08.593Z,99799.94
2022-11-04T05:43:35.477Z,99795.59
2022-11-04T05:46:02.386Z,99802.94
2022-11-04T05:48:29.153Z,99792.25
2022-11-04T05:50:56.013Z,99796.13
2022-11-04T05:53:22.609Z,99801.78
2022-11-04T05:55:49.094Z,99803.84
2022-11-04T05:58:15.541Z,99795.84
2022-11-04T06:00:43.045Z,99807.25
2022-11-04T06:03:12.151Z,99806.09
2022-11-04T06:05:41.845Z,99814.41
2022-11-04T06:08:08.571Z,99812.13
2022-11-04T06:10:35.246Z,99821.81
2022-11-04T06:13:01.684Z,99823.22
2022-11-04T06:15:28.094Z,99824.72
2022-11-04T06:17:54.519Z,99829.25
2022-11-04T06:20:20.945Z,99835.38
2022-11-04T06:22:47.405Z,99841.91
2022-11-04T06:25:13.842Z,99840.03
2022-11-04T06:27:40.355Z,99837.47
2022-11-04T06:30:07.416Z,99834.22
2022-11-04T06:32:33.864Z,99834.41
2022-11-04T06:35:00.310Z,99843.91
2022-11-04T06:37:26.709Z,99845.59
2022-11-04T06:39:53.141Z,99841.28
2022-11-04T06:42:19.692Z,99851.44
2022-11-04T06:44:46.174Z,99861.06
2022-11-04T06:47:12.813Z,99858.84
2022-11-04T06:49:39.874Z,99857.59
2022-11-04T06:52:06.289Z,99873.94
2022-11-04T06:54:32.727Z,99877.19
2022-11-04T06:56:59.358Z,99870.41
2022-11-04T06:59:25.807Z,99871.41
2022-11-04T07:01:52.451Z,99878.59
2022-11-04T07:04:19.401Z,99875.56
2022-11-04T07:06:45.896Z,99875.41
2022-11-04T07:09:14.061Z,99872.44
2022-11-04T07:11:41.309Z,99868.66
2022-11-04T07:14:08.904Z,99872.53
2022-11-04T07:16:35.886Z,99871.84
2022-11-04T07:19:02.812Z,99868.34
2022-11-04T07:21:29.370Z,99864.81
2022-11-04T07:23:55.814Z,99864.47
2022-11-04T07:26:22.229Z,99858.69
2022-11-04T07:28:48.812Z,99856.81
2022-11-04T07:31:16.940Z,99862.03
2022-11-04T07:33:43.496Z,99867.53
2022-11-04T07:36:13.433Z,99873.38
2022-11-04T07:38:39.831Z,99867.88
2022-11-04T07:41:07.102Z,99873.72
2022-11-04T07:43:33.817Z,99864.38
2022-11-04T07:46:05.765Z,99858.66
2022-11-04T07:48:32.365Z,99854.41
2022-11-04T07:51:00.204Z,99849.06
2022-11-04T07:53:27.980Z,99846.69
2022-11-04T07:55:54.444Z,99853.66
2022-11-04T07:58:22.240Z,99847.97
2022-11-04T08:00:48.955Z,99852.66
2022-11-04T08:03:15.714Z,99850.03
2022-11-04T08:05:42.160Z,99857.19
2022-11-04T08:08:08.568Z,99852.63
2022-11-04T08:10:35.905Z,99843.06
2022-11-04T08:13:02.284Z,99845.25
2022-11-04T08:15:29.195Z,99843.34
2022-11-04T08:17:55.613Z,99853.31
2022-11-04T08:20:22.032Z,99868.38
2022-11-04T08:22:48.404Z,99867.06
2022-11-04T08:25:14.989Z,99878.50
2022-11-04T08:27:41.399Z,99870.59
2022-11-04T08:30:08.803Z,99867.69
2022-11-04T08:32:35.405Z,99868.94
2022-11-04T08:35:01.798Z,99872.88
2022-11-04T08:37:28.266Z,99880.53
2022-11-04T08:39:54.667Z,99887.84
2022-11-04T08:42:21.181Z,99891.19
2022-11-04T08:44:51.519Z,99898.22
2022-11-04T08:47:18.171Z,99895.63
2022-11-04T08:49:44.607Z,99888.16
2022-11-04T08:52:11.072Z,99895.72
2022-11-04T08:54:37.560Z,99902.22
2022-11-04T08:57:03.992Z,99894.50
2022-11-04T08:59:30.423Z,99908.56
2022-11-04T09:01:57.276Z,99908.91
2022-11-04T09:04:23.981Z,99901.41
2022-11-04T09:06:52.077Z,99886.94
2022-11-04T09:09:19.056Z,99869.34
2022-11-04T09:11:46.778Z,99871.69
2022-11-04T09:14:13.375Z,99868.28
2022-11-04T09:16:41.101Z,99862.38
2022-11-04T09:19:08.084Z,99850.66
2022-11-04T09:21:34.723Z,99848.78
2022-11-04T09:24:01.218Z,99849.63
2022-11-04T09:26:28.131Z,99854.97
2022-11-04T09:28:56.129Z,99859.84
2022-11-04T09:31:23.067Z,99850.69
2022-11-04T09:33:50.365Z,99863.63
2022-11-04T09:36:17.226Z,99859.03
2022-11-04T09:38:44.963Z,99858.25
2022-11-04T09:41:23.502Z,99865.41
2022-11-04T09:44:08.742Z,99857.59
2022-11-04T09:46:37.286Z,99860.66
2022-11-04T09:49:07.543Z,99858.28
2022-11-04T09:54:45.813Z,99850.59
2022-11-04T09:57:17.574Z,99854.25
2022-11-04T09:59:44.528Z,99870.94
2022-11-04T10:02:11.709Z,99885.13
2022-11-04T10:04:50.573Z,99895.47
2022-11-04T10:07:26.903Z,99908.19
2022-11-04T10:10:15.052Z,99904.00
2022-11-04T10:13:01.791Z,99909.88
2022-11-04T10:16:02.135Z,99898.19
2022-11-04T10:18:55.227Z,99891.72
2022-11-04T10:21:30.354Z,99897.81
2022-11-04T10:24:15.431Z,99905.66
2022-11-04T10:26:44.802Z,99915.56
2022-11-04T10:29:23.641Z,99915.53
2022-11-04T10:31:52.130Z,99921.53
2022-11-04T10:34:50.832Z,99918.03
2022-11-04T10:37:17.689Z,99933.00
2022-11-04T10:39:46.152Z,99927.66
2022-11-04T10:42:24.511Z,99927.56
2022-11-04T10:44:52.280Z,99925.59
2022-11-04T10:47:34.267Z,99911.38
2022-11-04T10:50:28.980Z,99902.34
2022-11-04T10:53:14.730Z,99909.34
2022-11-04T10:55:51.307Z,99909.41
2022-11-04T10:58:27.500Z,99919.16
2022-11-04T11:00:54.662Z,99925.22
2022-11-04T11:03:34.841Z,99939.19
2022-11-04T11:06:40.246Z,99935.16
2022-11-04T11:09:15.257Z,99940.50
2022-11-04T11:11:51.841Z,99951.22
2022-11-04T11:14:30.366Z,99964.72
2022-11-04T11:17:04.776Z,99967.00
2022-11-04T11:19:46.130Z,99962.56
2022-11-04T11:22:28.218Z,99960.50
2022-11-04T11:25:12.509Z,99963.84
2022-11-04T11:27:39.403Z,99975.13
2022-11-04T11:30:06.379Z,99982.63
2022-11-04T11:32:43.301Z,99989.16
2022-11-04T11:35:21.882Z,99986.88
2022-11-04T11:37:48.975Z,99994.66
2022-11-04T11:40:31.620Z,99995.53
2022-11-04T11:43:00.803Z,99994.44
2022-11-04T11:45:28.737Z,99985.66
2022-11-04T11:47:56.142Z,99983.50
2022-11-04T11:50:32.569Z,99985.66
2022-11-04T11:53:27.009Z,99991.31
2022-11-04T11:56:17.305Z,99981.03
2022-11-04T12:01:50.813Z,99977.50
2022-11-04T12:10:10.117Z,99971.44
2022-11-04T12:12:53.749Z,99964.09
2022-11-04T12:15:46.865Z,99966.75
2022-11-04T12:18:33.088Z,99961.06
2022-11-04T12:21:16.928Z,99965.16
2022-11-04T12:23:55.566Z,99964.47
2022-11-04T12:26:36.688Z,99970.00
2022-11-04T12:29:10.320Z,99961.00
2022-11-04T12:32:02.658Z,99977.63
2022-11-04T12:34:47.055Z,99979.81
2022-11-04T12:37:38.569Z,99976.19
2022-11-04T12:41:05.071Z,99986.63
2022-11-04T12:43:54.136Z,99977.28
2022-11-04T12:46:46.123Z,99979.00
2022-11-04T12:50:14.884Z,99976.00
2022-11-04T12:53:25.973Z,99982.72
2022-11-04T12:56:11.242Z,99986.69
2022-11-04T12:59:08.709Z,99981.84
2022-11-04T13:01:44.181Z,99978.28
2022-11-04T13:04:14.772Z,99987.56
2022-11-04T13:07:01.065Z,99985.84
2022-11-04T13:09:49.393Z,99992.09
2022-11-04T13:12:25.433Z,99992.09
2022-11-04T13:14:51.797Z,99995.97
2022-11-04T13:17:24.124Z,99998.44
2022-11-04T13:19:53.038Z,100010.16
2022-11-04T13:22:26.330Z,100001.47
2022-11-04T13:24:59.207Z,100009.28
2022-11-04T13:27:33.114Z,100007.81
2022-11-04T13:30:06.212Z,100012.53
2022-11-04T13:33:09.023Z,100016.19
2022-11-04T13:35:48.209Z,100015.22
2022-11-04T13:38:20.614Z,100011.66
2022-11-04T13:40:58.453Z,100019.22
2022-11-04T13:43:39.340Z,100016.53
2022-11-04T13:46:31.249Z,100015.56
2022-11-04T13:49:02.600Z,100019.59
2022-11-04T13:51:45.003Z,100013.53
2022-11-04T13:54:39.202Z,100015.84
2022-11-04T13:57:18.856Z,100011.56
2022-11-04T14:00:18.329Z,100004.53
2022-11-04T14:02:49.253Z,99999.50
2022-11-04T14:05:28.248Z,100001.75
2022-11-04T14:08:03.564Z,100001.69
2022-11-04T14:10:48.275Z,100002.31
2022-11-04T14:13:30.045Z,100013.72
2022-11-04T14:16:02.312Z,100014.50
2022-11-04T14:18:31.272Z,100015.13
2022-11-04T14:21:05.638Z,100013.13
2022-11-04T14:23:33.035Z,100000.69
2022-11-04T14:26:02.720Z,100012.69
2022-11-04T14:28:30.913Z,100014.88
2022-11-04T14:31:00.538Z,100019.28
2022-11-04T14:33:51.603Z,100022.59
2022-11-04T14:36:20.788Z,100015.41
2022-11-04T14:39:10.281Z,100014.22
2022-11-04T14:41:39.716Z,100019.81
2022-11-04T14:44:21.275Z,100034.34
2022-11-04T14:46:51.701Z,100030.66
2022-11-04T14:49:39.984Z,100034.69
2022-11-04T14:52:17.037Z,100033.66
2022-11-04T14:54:43.736Z,100035.66
2022-11-04T14:57:17.782Z,100043.03
2022-11-04T14:59:44.704Z,100042.72
2022-11-04T15:02:31.494Z,100044.41
2022-11-04T15:05:00.164Z,100046.09
2022-11-04T15:07:26.538Z,100049.75
2022-11-04T15:09:52.983Z,100054.47
2022-11-04T15:12:38.550Z,100053.78
2022-11-04T15:15:34.352Z,100049.09
2022-11-04T15:18:05.083Z,100048.75
2022-11-04T15:20:32.857Z,100050.75
2022-11-04T15:23:02.979Z,100057.47
2022-11-04T15:25:29.671Z,100057.13
2022-11-04T15:27:56.722Z,100054.13
2022-11-04T15:30:25.782Z,100056.97
2022-11-04T15:33:03.582Z,100071.34
2022-11-04T15:35:33.251Z,100077.53
2022-11-04T15:38:01.684Z,100076.84
2022-11-04T15:40:29.702Z,100082.41
2022-11-04T15:42:58.826Z,100077.72
2022-11-04T15:45:59.476Z,100075.81
2022-11-04T15:48:34.827Z,100078.69
2022-11-04T15:51:21.930Z,100063.28
2022-11-04T15:53:55.102Z,100061.28
2022-11-04T15:56:26.073Z,100066.66
2022-11-04T15:58:54.264Z,100067.16
2022-11-04T16:01:21.213Z,100080.50
2022-11-04T16:03:56.420Z,100080.84
2022-11-04T16:06:42.016Z,100094.91
2022-11-04T16:09:21.402Z,100096.25
2022-11-04T16:12:09.199Z,100101.72
2022-11-04T16:14:35.798Z,100093.75
2022-11-04T16:17:02.277Z,100089.03
2022-11-04T16:19:30.203Z,100102.94
2022-11-04T16:22:04.803Z,100092.91
2022-11-04T16:24:34.664Z,100099.59
2022-11-04T16:27:01.406Z,100100.44
2022-11-04T16:29:30.925Z,100105.28
2022-11-04T16:32:18.021Z,100113.97
2022-11-04T16:34:46.824Z,100115.28
2022-11-04T16:37:13.284Z,100127.66
2022-11-04T16:39:40.506Z,100124.16
2022-11-04T16:42:07.214Z,100126.69
2022-11-04T16:44:33.854Z,100117.66
2022-11-04T16:47:00.873Z,100126.69
2022-11-04T16:49:27.342Z,100135.03
2022-11-04T16:51:56.458Z,100135.38
2022-11-04T16:54:24.561Z,100140.66
2022-11-04T16:56:51.151Z,100138.63
2022-11-04T16:59:17.812Z,100139.31
2022-11-04T17:01:44.372Z,100142.38
2022-11-04T17:04:10.906Z,100134.03
2022-11-04T17:06:38.196Z,100140.03
2022-11-04T17:09:17.769Z,100138.03
2022-11-04T17:11:44.152Z,100145.19
2022-11-04T17:14:10.525Z,100148.22
2022-11-04T17:16:36.910Z,100147.72
2022-11-04T17:19:03.323Z,100149.53
2022-11-04T17:21:30.247Z,100147.88
2022-11-04T17:23:56.984Z,100148.03
2022-11-04T17:26:23.562Z,100150.06
2022-11-04T17:28:50.136Z,100144.22
2022-11-04T17:31:19.032Z,100148.38
2022-11-04T17:33:45.509Z,100147.03
2022-11-04T17:36:16.899Z,100160.25
2022-11-04T17:38:43.419Z,100167.59
2022-11-04T17:41:28.875Z,100173.59
2022-11-04T17:44:01.463Z,100168.28
2022-11-04T17:46:37.628Z,100165.56
2022-11-04T17:49:12.007Z,100170.97
2022-11-04T17:51:40.283Z,100169.44
2022-11-04T17:54:07.232Z,100168.09
2022-11-04T17:56:33.720Z,100174.41
2022-11-04T17:59:01.369Z,100181.16
2022-11-04T18:01:28.709Z,100188.16
2022-11-04T18:03:55.516Z,100182.19
2022-11-04T18:06:22.476Z,100189.84
2022-11-04T18:08:49.144Z,100190.16
2022-11-04T18:11:35.769Z,100189.50
2022-11-04T18:14:02.262Z,100179.31
2022-11-04T18:16:28.837Z,100192.19
2022-11-04T18:18:56.899Z,100194.03
2022-11-04T18:21:23.355Z,100190.50
2022-11-04T18:23:49.734Z,100194.53
2022-11-04T18:26:16.157Z,100198.84
2022-11-04T18:28:42.939Z,100195.84
2022-11-04T18:31:11.537Z,100191.28
2022-11-04T18:33:38.314Z,100200.75
2022-11-04T18:36:05.792Z,100203.59
2022-11-04T18:38:32.806Z,100207.47
2022-11-04T18:40:59.674Z,100202.69
2022-11-04T18:43:26.240Z,100208.88
2022-11-04T18:45:53.549Z,100208.16
2022-11-04T18:48:21.267Z,100209.88
2022-11-04T18:50:48.575Z,100199.31
2022-11-04T18:53:15.711Z,100207.19
2022-11-04T18:55:42.152Z,100206.81
2022-11-04T18:58:09.049Z,100207.84
2022-11-04T19:00:37.548Z,100205.66
2022-11-04T19:03:04.059Z,100207.66
2022-11-04T19:05:30.602Z,100212.22
2022-11-04T19:07:57.011Z,100204.16
2022-11-04T19:10:23.424Z,100205.19
2022-11-04T19:13:08.948Z,100211.84
2022-11-04T19:15:35.763Z,100210.84
2022-11-04T19:18:02.171Z,100215.22
2022-11-04T19:20:28.608Z,100220.56
2022-11-04T19:22:55.037Z,100211.13
2022-11-04T19:25:21.644Z,100221.69
2022-11-04T19:28:05.255Z,100222.72
2022-11-04T19:30:34.623Z,100229.75
2022-11-04T19:33:01.271Z,100227.38
2022-11-04T19:35:28.073Z,100234.34
2022-11-04T19:37:54.930Z,100229.22
2022-11-04T19:40:22.120Z,100223.56
2022-11-04T19:43:06.899Z,100223.88
2022-11-04T19:45:33.383Z,100229.22
2022-11-04T19:47:59.930Z,100219.84
2022-11-04T19:50:26.507Z,100221.91
2022-11-04T19:52:52.944Z,100226.19
2022-11-04T19:55:19.693Z,100228.84
2022-11-04T19:57:46.077Z,100226.72
2022-11-04T20:00:12.717Z,100227.56
2022-11-04T20:02:39.385Z,100233.16
2022-11-04T20:05:07.168Z,100230.97
2022-11-04T20:07:33.611Z,100224.00
2022-11-04T20:10:00.067Z,100240.03
2022-11-04T20:12:45.276Z,100243.94
2022-11-04T20:15:11.751Z,100245.91
2022-11-04T20:17:38.195Z,100245.28
2022-11-04T20:20:05.013Z,100251.63
2022-11-04T20:22:31.473Z,100257.00
2022-11-04T20:24:57.949Z,100252.81
2022-11-04T20:27:24.359Z,100260.31
2022-11-04T20:29:50.968Z,100255.47
2022-11-04T20:32:17.429Z,100263.16
2022-11-04T20:34:43.964Z,100254.31
2022-11-04T20:37:12.387Z,100257.63
2022-11-04T20:39:38.827Z,100256.25
2022-11-04T20:42:05.363Z,100264.63
2022-11-04T20:44:32.397Z,100261.31
2022-11-04T20:46:59.374Z,100269.16
2022-11-04T20:49:25.795Z,100273.19
2022-11-04T20:51:55.470Z,100273.28
2022-11-04T20:54:22.539Z,100279.72
2022-11-04T20:56:48.957Z,100275.84
2022-11-04T20:59:16.622Z,100282.53
2022-11-04T21:01:44.911Z,100281.56
2022-11-04T21:04:15.115Z,100286.44
2022-11-04T21:06:41.966Z,100281.25
2022-11-04T21:09:09.986Z,100293.09
2022-11-04T21:11:36.483Z,100301.78
2022-11-04T21:14:03.555Z,100292.06
2022-11-04T21:16:30.487Z,100283.88
2022-11-04T21:18:57.805Z,100293.94
2022-11-04T21:21:27.194Z,100294.09
2022-11-04T21:24:01.665Z,100293.63
2022-11-04T21:26:30.236Z,100295.09
2022-11-04T21:29:01.586Z,100301.75
2022-11-04T21:31:30.463Z,100302.22
2022-11-04T21:33:57.078Z,100304.06
2022-11-04T21:36:23.557Z,100307.94
2022-11-04T21:38:50.596Z,100305.13
2022-11-04T21:43:59.854Z,100305.88
2022-11-04T21:46:28.114Z,100314.06
2022-11-04T21:48:55.100Z,100317.16
2022-11-04T21:51:24.097Z,100310.59
2022-11-04T21:53:50.583Z,100315.59
2022-11-04T21:56:19.945Z,100314.44
2022-11-04T21:58:46.807Z,100313.75
2022-11-04T22:01:16.836Z,100314.50
2022-11-04T22:03:43.608Z,100313.38
2022-11-04T22:06:12.413Z,100319.41
2022-11-04T22:08:43.175Z,100321.88
2022-11-04T22:11:12.979Z,100322.00
2022-11-04T22:13:39.524Z,100323.34
2022-11-04T22:16:14.789Z,100324.78
2022-11-04T22:18:41.341Z,100329.13
2022-11-04T22:21:11.634Z,100332.00
2022-11-04T22:23:38.136Z,100336.09
2022-11-04T22:26:17.240Z,100336.97
2022-11-04T22:28:44.107Z,100337.34
2022-11-04T22:31:16.648Z,100335.56
2022-11-04T22:33:43.305Z,100334.81
2022-11-04T22:36:10.897Z,100341.66
2022-11-04T22:38:38.366Z,100335.03
2022-11-04T22:41:07.461Z,100332.22
2022-11-04T22:43:34.246Z,100334.25
2022-11-04T22:46:08.995Z,100333.06
2022-11-04T22:48:36.197Z,100337.97
2022-11-04T22:51:02.657Z,100345.47
2022-11-04T22:53:29.137Z,100334.47
2022-11-04T22:56:00.056Z,100339.59
2022-11-04T22:58:27.715Z,100331.78
2022-11-04T23:00:56.576Z,100338.59
2022-11-04T23:03:24.316Z,100337.44
2022-11-04T23:05:55.418Z,100339.44
2022-11-04T23:08:22.267Z,100348.81
2022-11-04T23:11:07.234Z,100349.88
2022-11-04T23:13:52.426Z,100350.81
2022-11-04T23:16:42.018Z,100354.31
2022-11-04T23:19:08.596Z,100359.28
2022-11-04T23:21:53.583Z,100352.47
2022-11-04T23:24:38.603Z,100351.16
2022-11-04T23:27:05.068Z,100359.22
2022-11-04T23:32:06.684Z,100366.91
2022-11-04T23:34:51.852Z,100367.81
2022-11-04T23:37:18.444Z,100365.09
2022-11-04T23:39:47.415Z,100364.53
2022-11-04T23:42:17.458Z,100367.09
2022-11-04T23:45:12.792Z,100375.41
2022-11-04T23:48:03.302Z,100372.25
2022-11-04T23:50:53.704Z,100369.91
2022-11-04T23:53:39.690Z,100376.78
2022-11-04T23:56:27.790Z,100380.88
2022-11-04T23:59:12.619Z,100381.81
